sensor_id;sensor_type;location;lat;lon;timestamp;P1;durP1;ratioP1;P2;durP2;ratioP2
70303;SDS011;57712;48.752;11.348;2024-03-08T00:02:16;27.05;;;12.55;;
70303;SDS011;57712;48.752;11.348;2024-03-08T00:04:43;28.05;;;12.93;;
70303;SDS011;57712;48.752;11.348;2024-03-08T00:07:11;28.53;;;12.80;;
70303;SDS011;57712;48.752;11.348;2024-03-08T00:09:39;29.48;;;12.82;;
70303;SDS011;57712;48.752;11.348;2024-03-08T00:12:06;32.92;;;12.85;;
70303;SDS011;57712;48.752;11.348;2024-03-08T00:14:33;25.80;;;11.82;;
70303;SDS011;57712;48.752;11.348;2024-03-08T00:17:00;27.75;;;11.48;;
70303;SDS011;57712;48.752;11.348;2024-03-08T00:19:26;26.93;;;12.20;;
70303;SDS011;57712;48.752;11.348;2024-03-08T00:21:53;25.85;;;11.38;;
70303;SDS011;57712;48.752;11.348;2024-03-08T00:24:20;29.38;;;12.68;;
70303;SDS011;57712;48.752;11.348;2024-03-08T00:26:52;28.33;;;12.68;;
70303;SDS011;57712;48.752;11.348;2024-03-08T00:29:20;26.13;;;12.35;;
70303;SDS011;57712;48.752;11.348;2024-03-08T00:31:48;28.50;;;12.67;;
70303;SDS011;57712;48.752;11.348;2024-03-08T00:34:15;24.50;;;11.68;;
70303;SDS011;57712;48.752;11.348;2024-03-08T00:36:42;27.77;;;12.30;;
70303;SDS011;57712;48.752;11.348;2024-03-08T00:39:09;25.75;;;12.13;;
70303;SDS011;57712;48.752;11.348;2024-03-08T00:41:35;28.50;;;12.38;;
70303;SDS011;57712;48.752;11.348;2024-03-08T00:44:02;26.73;;;12.50;;
70303;SDS011;57712;48.752;11.348;2024-03-08T00:46:31;26.58;;;12.18;;
70303;SDS011;57712;48.752;11.348;2024-03-08T00:48:58;25.33;;;11.77;;
70303;SDS011;57712;48.752;11.348;2024-03-08T00:51:24;29.98;;;12.20;;
70303;SDS011;57712;48.752;11.348;2024-03-08T00:53:51;27.70;;;12.05;;
70303;SDS011;57712;48.752;11.348;2024-03-08T00:56:18;29.07;;;12.83;;
70303;SDS011;57712;48.752;11.348;2024-03-08T00:58:45;29.48;;;12.50;;
70303;SDS011;57712;48.752;11.348;2024-03-08T01:01:12;27.33;;;12.25;;
70303;SDS011;57712;48.752;11.348;2024-03-08T01:03:45;26.52;;;12.45;;
70303;SDS011;57712;48.752;11.348;2024-03-08T01:06:12;26.35;;;12.38;;
70303;SDS011;57712;48.752;11.348;2024-03-08T01:08:38;30.20;;;12.60;;
70303;SDS011;57712;48.752;11.348;2024-03-08T01:11:08;26.20;;;11.82;;
70303;SDS011;57712;48.752;11.348;2024-03-08T01:13:35;25.23;;;11.52;;
70303;SDS011;57712;48.752;11.348;2024-03-08T01:16:02;26.65;;;12.45;;
70303;SDS011;57712;48.752;11.348;2024-03-08T01:18:29;30.80;;;12.80;;
70303;SDS011;57712;48.752;11.348;2024-03-08T01:20:56;26.87;;;12.17;;
70303;SDS011;57712;48.752;11.348;2024-03-08T01:23:23;26.42;;;12.40;;
70303;SDS011;57712;48.752;11.348;2024-03-08T01:25:50;28.65;;;12.20;;
70303;SDS011;57712;48.752;11.348;2024-03-08T01:28:23;29.17;;;12.82;;
70303;SDS011;57712;48.752;11.348;2024-03-08T01:30:51;26.08;;;12.48;;
70303;SDS011;57712;48.752;11.348;2024-03-08T01:33:25;27.63;;;12.27;;
70303;SDS011;57712;48.752;11.348;2024-03-08T01:35:53;26.48;;;12.05;;
70303;SDS011;57712;48.752;11.348;2024-03-08T01:38:20;27.25;;;12.70;;
70303;SDS011;57712;48.752;11.348;2024-03-08T01:40:50;26.60;;;12.02;;
70303;SDS011;57712;48.752;11.348;2024-03-08T01:43:20;29.02;;;12.40;;
70303;SDS011;57712;48.752;11.348;2024-03-08T01:45:57;29.07;;;12.30;;
70303;SDS011;57712;48.752;11.348;2024-03-08T01:48:28;26.95;;;12.02;;
70303;SDS011;57712;48.752;11.348;2024-03-08T01:50:58;31.95;;;13.18;;
70303;SDS011;57712;48.752;11.348;2024-03-08T01:53:26;28.40;;;11.93;;
70303;SDS011;57712;48.752;11.348;2024-03-08T01:55:57;30.30;;;12.23;;
70303;SDS011;57712;48.752;11.348;2024-03-08T01:58:24;27.70;;;12.37;;
70303;SDS011;57712;48.752;11.348;2024-03-08T02:00:54;29.98;;;12.40;;
70303;SDS011;57712;48.752;11.348;2024-03-08T02:03:23;26.77;;;11.90;;
70303;SDS011;57712;48.752;11.348;2024-03-08T02:05:50;28.58;;;13.05;;
70303;SDS011;57712;48.752;11.348;2024-03-08T02:08:18;29.50;;;13.18;;
70303;SDS011;57712;48.752;11.348;2024-03-08T02:10:49;27.77;;;12.73;;
70303;SDS011;57712;48.752;11.348;2024-03-08T02:13:18;27.85;;;12.60;;
70303;SDS011;57712;48.752;11.348;2024-03-08T02:15:58;27.20;;;12.82;;
70303;SDS011;57712;48.752;11.348;2024-03-08T02:18:26;29.70;;;12.95;;
70303;SDS011;57712;48.752;11.348;2024-03-08T02:20:58;29.48;;;12.90;;
70303;SDS011;57712;48.752;11.348;2024-03-08T02:23:26;28.17;;;12.30;;
70303;SDS011;57712;48.752;11.348;2024-03-08T02:25:53;30.63;;;13.43;;
70303;SDS011;57712;48.752;11.348;2024-03-08T02:28:21;29.67;;;12.90;;
70303;SDS011;57712;48.752;11.348;2024-03-08T02:30:49;27.98;;;12.80;;
70303;SDS011;57712;48.752;11.348;2024-03-08T02:33:24;28.75;;;12.95;;
70303;SDS011;57712;48.752;11.348;2024-03-08T02:35:52;31.93;;;14.20;;
70303;SDS011;57712;48.752;11.348;2024-03-08T02:38:19;28.42;;;12.95;;
70303;SDS011;57712;48.752;11.348;2024-03-08T02:40:48;28.48;;;12.68;;
70303;SDS011;57712;48.752;11.348;2024-03-08T02:43:16;28.92;;;13.10;;
70303;SDS011;57712;48.752;11.348;2024-03-08T02:45:44;28.50;;;13.07;;
70303;SDS011;57712;48.752;11.348;2024-03-08T02:48:12;32.07;;;13.50;;
70303;SDS011;57712;48.752;11.348;2024-03-08T02:50:40;32.15;;;13.23;;
70303;SDS011;57712;48.752;11.348;2024-03-08T02:53:12;29.10;;;13.38;;
70303;SDS011;57712;48.752;11.348;2024-03-08T02:55:40;32.75;;;13.15;;
70303;SDS011;57712;48.752;11.348;2024-03-08T02:58:08;28.25;;;12.52;;
70303;SDS011;57712;48.752;11.348;2024-03-08T03:00:38;31.67;;;13.57;;
70303;SDS011;57712;48.752;11.348;2024-03-08T03:03:06;28.25;;;12.48;;
70303;SDS011;57712;48.752;11.348;2024-03-08T03:05:33;30.17;;;13.27;;
70303;SDS011;57712;48.752;11.348;2024-03-08T03:08:01;29.77;;;13.07;;
70303;SDS011;57712;48.752;11.348;2024-03-08T03:10:28;28.75;;;12.20;;
70303;SDS011;57712;48.752;11.348;2024-03-08T03:12:54;28.83;;;12.37;;
70303;SDS011;57712;48.752;11.348;2024-03-08T03:15:21;29.75;;;12.63;;
70303;SDS011;57712;48.752;11.348;2024-03-08T03:17:53;27.23;;;12.70;;
70303;SDS011;57712;48.752;11.348;2024-03-08T03:20:20;29.83;;;13.25;;
70303;SDS011;57712;48.752;11.348;2024-03-08T03:22:53;30.00;;;13.50;;
70303;SDS011;57712;48.752;11.348;2024-03-08T03:25:20;30.77;;;14.40;;
70303;SDS011;57712;48.752;11.348;2024-03-08T03:27:55;29.27;;;13.05;;
70303;SDS011;57712;48.752;11.348;2024-03-08T03:30:25;30.67;;;14.38;;
70303;SDS011;57712;48.752;11.348;2024-03-08T03:32:53;31.58;;;13.63;;
70303;SDS011;57712;48.752;11.348;2024-03-08T03:35:22;27.70;;;12.77;;
70303;SDS011;57712;48.752;11.348;2024-03-08T03:37:49;29.60;;;12.73;;
70303;SDS011;57712;48.752;11.348;2024-03-08T03:40:37;29.60;;;12.85;;
70303;SDS011;57712;48.752;11.348;2024-03-08T03:43:05;31.88;;;13.98;;
70303;SDS011;57712;48.752;11.348;2024-03-08T03:45:32;31.58;;;13.40;;
70303;SDS011;57712;48.752;11.348;2024-03-08T03:48:06;30.80;;;13.07;;
70303;SDS011;57712;48.752;11.348;2024-03-08T03:50:37;30.23;;;13.33;;
70303;SDS011;57712;48.752;11.348;2024-03-08T03:53:06;28.45;;;13.50;;
70303;SDS011;57712;48.752;11.348;2024-03-08T03:55:35;29.65;;;13.25;;
70303;SDS011;57712;48.752;11.348;2024-03-08T03:58:03;29.67;;;12.98;;
70303;SDS011;57712;48.752;11.348;2024-03-08T04:00:30;31.90;;;14.05;;
70303;SDS011;57712;48.752;11.348;2024-03-08T04:03:00;30.90;;;13.87;;
70303;SDS011;57712;48.752;11.348;2024-03-08T04:05:27;29.02;;;12.88;;
70303;SDS011;57712;48.752;11.348;2024-03-08T04:07:55;35.55;;;16.20;;
70303;SDS011;57712;48.752;11.348;2024-03-08T04:10:21;27.70;;;13.48;;
70303;SDS011;57712;48.752;11.348;2024-03-08T04:12:48;29.25;;;14.15;;
70303;SDS011;57712;48.752;11.348;2024-03-08T04:15:15;30.40;;;13.73;;
70303;SDS011;57712;48.752;11.348;2024-03-08T04:17:42;29.55;;;13.77;;
70303;SDS011;57712;48.752;11.348;2024-03-08T04:20:09;29.65;;;13.60;;
70303;SDS011;57712;48.752;11.348;2024-03-08T04:22:37;30.30;;;13.43;;
70303;SDS011;57712;48.752;11.348;2024-03-08T04:25:06;30.80;;;14.00;;
70303;SDS011;57712;48.752;11.348;2024-03-08T04:27:35;30.73;;;13.50;;
70303;SDS011;57712;48.752;11.348;2024-03-08T04:30:02;32.20;;;13.80;;
70303;SDS011;57712;48.752;11.348;2024-03-08T04:32:30;32.45;;;14.30;;
70303;SDS011;57712;48.752;11.348;2024-03-08T04:34:59;33.25;;;14.32;;
70303;SDS011;57712;48.752;11.348;2024-03-08T04:37:28;29.98;;;13.95;;
70303;SDS011;57712;48.752;11.348;2024-03-08T04:39:56;30.20;;;13.30;;
70303;SDS011;57712;48.752;11.348;2024-03-08T04:42:23;30.92;;;14.55;;
70303;SDS011;57712;48.752;11.348;2024-03-08T04:44:54;30.08;;;13.68;;
70303;SDS011;57712;48.752;11.348;2024-03-08T04:47:21;29.55;;;14.00;;
70303;SDS011;57712;48.752;11.348;2024-03-08T04:49:48;31.63;;;14.13;;
70303;SDS011;57712;48.752;11.348;2024-03-08T04:52:16;31.80;;;13.43;;
70303;SDS011;57712;48.752;11.348;2024-03-08T04:54:43;31.35;;;13.77;;
70303;SDS011;57712;48.752;11.348;2024-03-08T04:57:11;31.48;;;14.10;;
70303;SDS011;57712;48.752;11.348;2024-03-08T04:59:38;32.38;;;14.98;;
70303;SDS011;57712;48.752;11.348;2024-03-08T05:02:04;32.88;;;14.07;;
70303;SDS011;57712;48.752;11.348;2024-03-08T05:04:31;29.90;;;13.87;;
70303;SDS011;57712;48.752;11.348;2024-03-08T05:06:57;35.38;;;14.20;;
70303;SDS011;57712;48.752;11.348;2024-03-08T05:09:27;32.47;;;14.82;;
70303;SDS011;57712;48.752;11.348;2024-03-08T05:11:58;32.50;;;14.77;;
70303;SDS011;57712;48.752;11.348;2024-03-08T05:14:26;32.10;;;14.52;;
70303;SDS011;57712;48.752;11.348;2024-03-08T05:16:53;33.07;;;13.93;;
70303;SDS011;57712;48.752;11.348;2024-03-08T05:19:20;33.55;;;15.23;;
70303;SDS011;57712;48.752;11.348;2024-03-08T05:21:47;32.55;;;14.80;;
70303;SDS011;57712;48.752;11.348;2024-03-08T05:24:15;32.42;;;14.35;;
70303;SDS011;57712;48.752;11.348;2024-03-08T05:26:43;32.70;;;14.18;;
70303;SDS011;57712;48.752;11.348;2024-03-08T05:29:11;31.03;;;13.90;;
70303;SDS011;57712;48.752;11.348;2024-03-08T05:31:49;36.05;;;14.90;;
70303;SDS011;57712;48.752;11.348;2024-03-08T05:34:17;32.10;;;15.32;;
70303;SDS011;57712;48.752;11.348;2024-03-08T05:36:44;31.77;;;14.55;;
70303;SDS011;57712;48.752;11.348;2024-03-08T05:39:13;33.90;;;16.10;;
70303;SDS011;57712;48.752;11.348;2024-03-08T05:41:40;38.87;;;16.93;;
70303;SDS011;57712;48.752;11.348;2024-03-08T05:44:08;38.25;;;17.00;;
70303;SDS011;57712;48.752;11.348;2024-03-08T05:46:35;33.38;;;15.40;;
70303;SDS011;57712;48.752;11.348;2024-03-08T05:49:03;30.17;;;14.00;;
70303;SDS011;57712;48.752;11.348;2024-03-08T05:51:32;33.35;;;15.07;;
70303;SDS011;57712;48.752;11.348;2024-03-08T05:54:03;34.13;;;14.80;;
70303;SDS011;57712;48.752;11.348;2024-03-08T05:56:37;34.65;;;14.48;;
70303;SDS011;57712;48.752;11.348;2024-03-08T05:59:05;35.83;;;15.93;;
70303;SDS011;57712;48.752;11.348;2024-03-08T06:01:31;37.05;;;15.10;;
70303;SDS011;57712;48.752;11.348;2024-03-08T06:03:59;33.72;;;14.90;;
70303;SDS011;57712;48.752;11.348;2024-03-08T06:06:26;36.47;;;15.57;;
70303;SDS011;57712;48.752;11.348;2024-03-08T06:08:52;34.58;;;15.52;;
70303;SDS011;57712;48.752;11.348;2024-03-08T06:11:19;36.10;;;17.38;;
70303;SDS011;57712;48.752;11.348;2024-03-08T06:13:47;43.95;;;19.30;;
70303;SDS011;57712;48.752;11.348;2024-03-08T06:16:13;38.08;;;16.17;;
70303;SDS011;57712;48.752;11.348;2024-03-08T06:18:40;34.47;;;15.37;;
70303;SDS011;57712;48.752;11.348;2024-03-08T06:21:08;36.63;;;15.45;;
70303;SDS011;57712;48.752;11.348;2024-03-08T06:23:38;35.80;;;15.07;;
70303;SDS011;57712;48.752;11.348;2024-03-08T06:26:06;35.97;;;15.40;;
70303;SDS011;57712;48.752;11.348;2024-03-08T06:28:34;32.42;;;15.45;;
70303;SDS011;57712;48.752;11.348;2024-03-08T06:31:01;33.47;;;15.17;;
70303;SDS011;57712;48.752;11.348;2024-03-08T06:33:28;36.88;;;16.45;;
70303;SDS011;57712;48.752;11.348;2024-03-08T06:35:56;38.13;;;16.48;;
70303;SDS011;57712;48.752;11.348;2024-03-08T06:38:24;34.85;;;15.32;;
70303;SDS011;57712;48.752;11.348;2024-03-08T06:40:54;37.00;;;16.38;;
70303;SDS011;57712;48.752;11.348;2024-03-08T06:43:21;34.83;;;15.37;;
70303;SDS011;57712;48.752;11.348;2024-03-08T06:45:48;36.22;;;15.88;;
70303;SDS011;57712;48.752;11.348;2024-03-08T06:48:15;34.35;;;15.75;;
70303;SDS011;57712;48.752;11.348;2024-03-08T06:50:46;37.25;;;15.95;;
70303;SDS011;57712;48.752;11.348;2024-03-08T06:53:14;35.95;;;15.25;;
70303;SDS011;57712;48.752;11.348;2024-03-08T06:55:43;35.73;;;16.13;;
70303;SDS011;57712;48.752;11.348;2024-03-08T06:58:12;35.53;;;15.43;;
70303;SDS011;57712;48.752;11.348;2024-03-08T07:00:38;36.85;;;17.25;;
70303;SDS011;57712;48.752;11.348;2024-03-08T07:03:08;33.50;;;15.02;;
70303;SDS011;57712;48.752;11.348;2024-03-08T07:05:38;33.28;;;15.32;;
70303;SDS011;57712;48.752;11.348;2024-03-08T07:08:06;36.33;;;15.30;;
70303;SDS011;57712;48.752;11.348;2024-03-08T07:10:33;35.97;;;15.25;;
70303;SDS011;57712;48.752;11.348;2024-03-08T07:13:01;34.20;;;14.55;;
70303;SDS011;57712;48.752;11.348;2024-03-08T07:15:30;35.72;;;15.50;;
70303;SDS011;57712;48.752;11.348;2024-03-08T07:17:57;31.42;;;14.70;;
70303;SDS011;57712;48.752;11.348;2024-03-08T07:20:26;36.27;;;15.03;;
70303;SDS011;57712;48.752;11.348;2024-03-08T07:22:52;34.53;;;15.07;;
70303;SDS011;57712;48.752;11.348;2024-03-08T07:25:20;33.67;;;14.65;;
70303;SDS011;57712;48.752;11.348;2024-03-08T07:27:48;33.03;;;14.95;;
70303;SDS011;57712;48.752;11.348;2024-03-08T07:30:15;35.92;;;15.77;;
70303;SDS011;57712;48.752;11.348;2024-03-08T07:33:01;34.77;;;14.40;;
70303;SDS011;57712;48.752;11.348;2024-03-08T07:35:28;32.17;;;15.13;;
70303;SDS011;57712;48.752;11.348;2024-03-08T07:37:55;36.80;;;15.27;;
70303;SDS011;57712;48.752;11.348;2024-03-08T07:40:22;34.78;;;14.88;;
70303;SDS011;57712;48.752;11.348;2024-03-08T07:42:49;35.40;;;15.15;;
70303;SDS011;57712;48.752;11.348;2024-03-08T07:45:19;33.87;;;15.27;;
70303;SDS011;57712;48.752;11.348;2024-03-08T07:47:45;35.53;;;15.43;;
70303;SDS011;57712;48.752;11.348;2024-03-08T07:50:12;35.17;;;15.68;;
70303;SDS011;57712;48.752;11.348;2024-03-08T07:52:43;35.75;;;15.63;;
70303;SDS011;57712;48.752;11.348;2024-03-08T07:55:09;37.65;;;16.80;;
70303;SDS011;57712;48.752;11.348;2024-03-08T07:57:39;38.60;;;16.73;;
70303;SDS011;57712;48.752;11.348;2024-03-08T08:00:06;40.13;;;16.80;;
70303;SDS011;57712;48.752;11.348;2024-03-08T08:02:34;39.22;;;17.15;;
70303;SDS011;57712;48.752;11.348;2024-03-08T08:05:05;38.65;;;16.20;;
70303;SDS011;57712;48.752;11.348;2024-03-08T08:07:32;39.67;;;17.63;;
70303;SDS011;57712;48.752;11.348;2024-03-08T08:10:00;35.57;;;16.13;;
70303;SDS011;57712;48.752;11.348;2024-03-08T08:12:27;39.00;;;16.95;;
70303;SDS011;57712;48.752;11.348;2024-03-08T08:14:55;39.05;;;17.70;;
70303;SDS011;57712;48.752;11.348;2024-03-08T08:17:22;38.22;;;17.10;;
70303;SDS011;57712;48.752;11.348;2024-03-08T08:19:49;39.10;;;17.52;;
70303;SDS011;57712;48.752;11.348;2024-03-08T08:22:15;39.77;;;16.70;;
70303;SDS011;57712;48.752;11.348;2024-03-08T08:24:42;38.20;;;16.60;;
70303;SDS011;57712;48.752;11.348;2024-03-08T08:27:09;37.33;;;15.75;;
70303;SDS011;57712;48.752;11.348;2024-03-08T08:29:35;39.58;;;17.75;;
70303;SDS011;57712;48.752;11.348;2024-03-08T08:32:02;36.92;;;16.88;;
70303;SDS011;57712;48.752;11.348;2024-03-08T08:34:30;39.00;;;16.87;;
70303;SDS011;57712;48.752;11.348;2024-03-08T08:36:58;39.75;;;17.50;;
70303;SDS011;57712;48.752;11.348;2024-03-08T08:39:24;37.30;;;17.13;;
70303;SDS011;57712;48.752;11.348;2024-03-08T08:41:52;38.90;;;16.60;;
70303;SDS011;57712;48.752;11.348;2024-03-08T08:44:21;37.58;;;17.60;;
70303;SDS011;57712;48.752;11.348;2024-03-08T08:46:48;37.30;;;17.63;;
70303;SDS011;57712;48.752;11.348;2024-03-08T08:49:18;37.40;;;17.02;;
70303;SDS011;57712;48.752;11.348;2024-03-08T08:51:50;36.97;;;17.50;;
70303;SDS011;57712;48.752;11.348;2024-03-08T08:54:18;36.75;;;16.42;;
70303;SDS011;57712;48.752;11.348;2024-03-08T08:56:45;38.58;;;17.42;;
70303;SDS011;57712;48.752;11.348;2024-03-08T08:59:11;37.93;;;17.47;;
70303;SDS011;57712;48.752;11.348;2024-03-08T09:01:40;37.42;;;17.48;;
70303;SDS011;57712;48.752;11.348;2024-03-08T09:04:07;39.08;;;17.40;;
70303;SDS011;57712;48.752;11.348;2024-03-08T09:06:34;38.83;;;17.13;;
70303;SDS011;57712;48.752;11.348;2024-03-08T09:09:02;36.80;;;17.40;;
70303;SDS011;57712;48.752;11.348;2024-03-08T09:11:32;37.43;;;17.50;;
70303;SDS011;57712;48.752;11.348;2024-03-08T09:13:59;35.60;;;16.95;;
70303;SDS011;57712;48.752;11.348;2024-03-08T09:16:26;35.55;;;17.55;;
70303;SDS011;57712;48.752;11.348;2024-03-08T09:18:52;34.25;;;16.33;;
70303;SDS011;57712;48.752;11.348;2024-03-08T09:21:19;39.38;;;18.33;;
70303;SDS011;57712;48.752;11.348;2024-03-08T09:23:49;38.47;;;17.57;;
70303;SDS011;57712;48.752;11.348;2024-03-08T09:26:16;34.53;;;16.25;;
70303;SDS011;57712;48.752;11.348;2024-03-08T09:28:54;33.35;;;16.40;;
70303;SDS011;57712;48.752;11.348;2024-03-08T09:31:23;34.60;;;16.05;;
70303;SDS011;57712;48.752;11.348;2024-03-08T09:33:50;33.53;;;16.63;;
70303;SDS011;57712;48.752;11.348;2024-03-08T09:36:17;34.40;;;16.33;;
70303;SDS011;57712;48.752;11.348;2024-03-08T09:38:44;34.38;;;17.25;;
70303;SDS011;57712;48.752;11.348;2024-03-08T09:41:11;34.58;;;16.80;;
70303;SDS011;57712;48.752;11.348;2024-03-08T09:43:38;36.22;;;16.73;;
70303;SDS011;57712;48.752;11.348;2024-03-08T09:46:05;32.72;;;15.93;;
70303;SDS011;57712;48.752;11.348;2024-03-08T09:48:34;31.83;;;15.07;;
70303;SDS011;57712;48.752;11.348;2024-03-08T09:51:01;34.03;;;16.30;;
70303;SDS011;57712;48.752;11.348;2024-03-08T09:53:29;30.90;;;15.48;;
70303;SDS011;57712;48.752;11.348;2024-03-08T09:55:56;29.83;;;14.48;;
70303;SDS011;57712;48.752;11.348;2024-03-08T09:58:23;31.70;;;14.90;;
70303;SDS011;57712;48.752;11.348;2024-03-08T10:00:59;28.80;;;13.17;;
70303;SDS011;57712;48.752;11.348;2024-03-08T10:03:31;30.92;;;14.15;;
70303;SDS011;57712;48.752;11.348;2024-03-08T10:06:01;30.90;;;13.85;;
70303;SDS011;57712;48.752;11.348;2024-03-08T10:08:28;30.88;;;14.60;;
70303;SDS011;57712;48.752;11.348;2024-03-08T10:10:57;26.40;;;13.30;;
70303;SDS011;57712;48.752;11.348;2024-03-08T10:13:25;25.40;;;12.53;;
70303;SDS011;57712;48.752;11.348;2024-03-08T10:15:55;26.38;;;13.27;;
70303;SDS011;57712;48.752;11.348;2024-03-08T10:18:22;26.30;;;13.23;;
70303;SDS011;57712;48.752;11.348;2024-03-08T10:21:02;24.08;;;11.90;;
70303;SDS011;57712;48.752;11.348;2024-03-08T10:23:31;28.63;;;13.18;;
70303;SDS011;57712;48.752;11.348;2024-03-08T10:26:09;28.03;;;13.23;;
70303;SDS011;57712;48.752;11.348;2024-03-08T10:28:43;26.92;;;12.20;;
70303;SDS011;57712;48.752;11.348;2024-03-08T10:31:11;26.05;;;12.98;;
70303;SDS011;57712;48.752;11.348;2024-03-08T10:33:41;24.75;;;12.10;;
70303;SDS011;57712;48.752;11.348;2024-03-08T10:36:08;25.08;;;13.15;;
70303;SDS011;57712;48.752;11.348;2024-03-08T10:38:38;23.67;;;11.97;;
70303;SDS011;57712;48.752;11.348;2024-03-08T10:41:07;26.00;;;12.98;;
70303;SDS011;57712;48.752;11.348;2024-03-08T10:44:21;26.85;;;12.70;;
70303;SDS011;57712;48.752;11.348;2024-03-08T10:46:47;20.90;;;11.88;;
70303;SDS011;57712;48.752;11.348;2024-03-08T10:49:31;22.30;;;12.18;;
70303;SDS011;57712;48.752;11.348;2024-03-08T10:52:05;23.60;;;12.23;;
70303;SDS011;57712;48.752;11.348;2024-03-08T10:54:36;23.02;;;11.38;;
70303;SDS011;57712;48.752;11.348;2024-03-08T10:57:12;21.77;;;11.50;;
70303;SDS011;57712;48.752;11.348;2024-03-08T10:59:39;20.70;;;11.50;;
70303;SDS011;57712;48.752;11.348;2024-03-08T11:02:06;22.40;;;11.15;;
70303;SDS011;57712;48.752;11.348;2024-03-08T11:04:36;21.57;;;11.13;;
70303;SDS011;57712;48.752;11.348;2024-03-08T11:07:04;20.77;;;11.02;;
70303;SDS011;57712;48.752;11.348;2024-03-08T11:09:35;21.40;;;11.98;;
70303;SDS011;57712;48.752;11.348;2024-03-08T11:12:22;22.83;;;11.73;;
70303;SDS011;57712;48.752;11.348;2024-03-08T11:14:52;19.80;;;10.30;;
70303;SDS011;57712;48.752;11.348;2024-03-08T11:17:44;18.17;;;10.07;;
70303;SDS011;57712;48.752;11.348;2024-03-08T11:20:11;19.35;;;10.70;;
70303;SDS011;57712;48.752;11.348;2024-03-08T11:22:48;21.70;;;11.43;;
70303;SDS011;57712;48.752;11.348;2024-03-08T11:25:37;19.50;;;10.40;;
70303;SDS011;57712;48.752;11.348;2024-03-08T11:30:44;20.03;;;10.07;;
70303;SDS011;57712;48.752;11.348;2024-03-08T11:33:27;21.10;;;10.60;;
70303;SDS011;57712;48.752;11.348;2024-03-08T11:38:43;20.10;;;10.02;;
70303;SDS011;57712;48.752;11.348;2024-03-08T11:41:10;20.33;;;9.57;;
70303;SDS011;57712;48.752;11.348;2024-03-08T11:43:44;20.50;;;10.30;;
70303;SDS011;57712;48.752;11.348;2024-03-08T11:46:11;20.02;;;10.63;;
70303;SDS011;57712;48.752;11.348;2024-03-08T11:48:41;18.17;;;10.38;;
70303;SDS011;57712;48.752;11.348;2024-03-08T11:51:13;18.02;;;9.63;;
70303;SDS011;57712;48.752;11.348;2024-03-08T11:53:41;17.52;;;9.52;;
70303;SDS011;57712;48.752;11.348;2024-03-08T11:56:13;19.63;;;10.67;;
70303;SDS011;57712;48.752;11.348;2024-03-08T11:58:47;19.00;;;9.52;;
70303;SDS011;57712;48.752;11.348;2024-03-08T12:01:20;18.75;;;9.90;;
70303;SDS011;57712;48.752;11.348;2024-03-08T12:03:52;18.65;;;10.27;;
70303;SDS011;57712;48.752;11.348;2024-03-08T12:06:27;19.17;;;9.10;;
70303;SDS011;57712;48.752;11.348;2024-03-08T12:09:12;16.33;;;9.20;;
70303;SDS011;57712;48.752;11.348;2024-03-08T12:11:39;19.40;;;10.18;;
70303;SDS011;57712;48.752;11.348;2024-03-08T12:14:06;17.15;;;9.90;;
70303;SDS011;57712;48.752;11.348;2024-03-08T12:16:34;17.50;;;8.80;;
70303;SDS011;57712;48.752;11.348;2024-03-08T12:19:03;15.65;;;8.68;;
70303;SDS011;57712;48.752;11.348;2024-03-08T12:21:31;17.10;;;9.13;;
70303;SDS011;57712;48.752;11.348;2024-03-08T12:24:09;17.13;;;9.50;;
70303;SDS011;57712;48.752;11.348;2024-03-08T12:26:36;16.85;;;9.40;;
70303;SDS011;57712;48.752;11.348;2024-03-08T12:31:54;15.80;;;8.55;;
70303;SDS011;57712;48.752;11.348;2024-03-08T12:34:22;15.67;;;8.37;;
70303;SDS011;57712;48.752;11.348;2024-03-08T12:36:51;16.85;;;8.40;;
70303;SDS011;57712;48.752;11.348;2024-03-08T12:39:21;16.48;;;9.27;;
70303;SDS011;57712;48.752;11.348;2024-03-08T12:41:49;16.55;;;9.00;;
70303;SDS011;57712;48.752;11.348;2024-03-08T12:44:18;16.85;;;8.70;;
70303;SDS011;57712;48.752;11.348;2024-03-08T12:46:48;17.40;;;8.63;;
70303;SDS011;57712;48.752;11.348;2024-03-08T12:49:18;17.83;;;9.07;;
70303;SDS011;57712;48.752;11.348;2024-03-08T12:51:49;18.83;;;9.00;;
70303;SDS011;57712;48.752;11.348;2024-03-08T12:54:15;16.05;;;8.32;;
70303;SDS011;57712;48.752;11.348;2024-03-08T12:56:42;16.10;;;8.75;;
70303;SDS011;57712;48.752;11.348;2024-03-08T12:59:09;15.10;;;8.17;;
70303;SDS011;57712;48.752;11.348;2024-03-08T13:01:36;14.27;;;7.95;;
70303;SDS011;57712;48.752;11.348;2024-03-08T13:04:06;15.07;;;8.25;;
70303;SDS011;57712;48.752;11.348;2024-03-08T13:06:35;14.70;;;8.00;;
70303;SDS011;57712;48.752;11.348;2024-03-08T13:09:01;13.90;;;7.82;;
70303;SDS011;57712;48.752;11.348;2024-03-08T13:11:32;14.73;;;7.90;;
70303;SDS011;57712;48.752;11.348;2024-03-08T13:14:04;14.10;;;8.02;;
70303;SDS011;57712;48.752;11.348;2024-03-08T13:16:33;15.32;;;7.88;;
70303;SDS011;57712;48.752;11.348;2024-03-08T13:19:01;16.98;;;8.13;;
70303;SDS011;57712;48.752;11.348;2024-03-08T13:21:28;14.43;;;8.05;;
70303;SDS011;57712;48.752;11.348;2024-03-08T13:23:56;15.87;;;8.60;;
70303;SDS011;57712;48.752;11.348;2024-03-08T13:26:25;14.27;;;7.90;;
70303;SDS011;57712;48.752;11.348;2024-03-08T13:28:57;14.57;;;7.50;;
70303;SDS011;57712;48.752;11.348;2024-03-08T13:31:25;12.77;;;6.68;;
70303;SDS011;57712;48.752;11.348;2024-03-08T13:33:52;13.73;;;7.63;;
70303;SDS011;57712;48.752;11.348;2024-03-08T13:36:24;14.73;;;7.83;;
70303;SDS011;57712;48.752;11.348;2024-03-08T13:38:55;14.45;;;7.88;;
70303;SDS011;57712;48.752;11.348;2024-03-08T13:41:25;16.13;;;7.97;;
70303;SDS011;57712;48.752;11.348;2024-03-08T13:43:54;14.82;;;7.70;;
70303;SDS011;57712;48.752;11.348;2024-03-08T13:46:22;14.32;;;7.50;;
70303;SDS011;57712;48.752;11.348;2024-03-08T13:48:50;13.97;;;7.40;;
70303;SDS011;57712;48.752;11.348;2024-03-08T13:51:20;13.68;;;8.27;;
70303;SDS011;57712;48.752;11.348;2024-03-08T13:53:49;13.65;;;7.30;;
70303;SDS011;57712;48.752;11.348;2024-03-08T13:56:15;13.18;;;7.00;;
70303;SDS011;57712;48.752;11.348;2024-03-08T13:58:42;14.40;;;7.90;;
70303;SDS011;57712;48.752;11.348;2024-03-08T14:01:10;14.80;;;8.30;;
70303;SDS011;57712;48.752;11.348;2024-03-08T14:03:38;13.57;;;8.02;;
70303;SDS011;57712;48.752;11.348;2024-03-08T14:06:08;14.82;;;7.68;;
70303;SDS011;57712;48.752;11.348;2024-03-08T14:08:50;14.23;;;7.22;;
70303;SDS011;57712;48.752;11.348;2024-03-08T14:11:17;14.88;;;7.47;;
70303;SDS011;57712;48.752;11.348;2024-03-08T14:13:46;15.00;;;7.73;;
70303;SDS011;57712;48.752;11.348;2024-03-08T14:16:13;13.18;;;6.82;;
70303;SDS011;57712;48.752;11.348;2024-03-08T14:18:40;13.98;;;6.95;;
70303;SDS011;57712;48.752;11.348;2024-03-08T14:21:07;13.48;;;7.25;;
70303;SDS011;57712;48.752;11.348;2024-03-08T14:23:37;12.80;;;7.07;;
70303;SDS011;57712;48.752;11.348;2024-03-08T14:26:04;14.77;;;7.73;;
70303;SDS011;57712;48.752;11.348;2024-03-08T14:28:34;14.43;;;7.97;;
70303;SDS011;57712;48.752;11.348;2024-03-08T14:31:01;13.15;;;7.22;;